sensor_id;sensor_type;location;lat;lon;timestamp;temperature;humidity
5560;DHT22;2803;47.916;8.074;2023-05-29T00:01:02;15.90;99.50
5560;DHT22;2803;47.916;8.074;2023-05-29T00:03:48;15.80;99.80
5560;DHT22;2803;47.916;8.074;2023-05-29T00:06:31;15.80;99.90
5560;DHT22;2803;47.916;8.074;2023-05-29T00:09:16;15.80;99.90
5560;DHT22;2803;47.916;8.074;2023-05-29T00:11:58;15.80;99.90
5560;DHT22;2803;47.916;8.074;2023-05-29T00:14:44;15.80;99.90
5560;DHT22;2803;47.916;8.074;2023-05-29T00:17:30;15.70;99.90
5560;DHT22;2803;47.916;8.074;2023-05-29T00:20:17;15.70;99.90
5560;DHT22;2803;47.916;8.074;2023-05-29T00:22:58;15.70;99.90
5560;DHT22;2803;47.916;8.074;2023-05-29T00:25:45;15.80;99.90
5560;DHT22;2803;47.916;8.074;2023-05-29T00:28:27;15.90;99.90
5560;DHT22;2803;47.916;8.074;2023-05-29T00:31:11;15.70;99.90
5560;DHT22;2803;47.916;8.074;2023-05-29T00:33:57;15.70;99.90
5560;DHT22;2803;47.916;8.074;2023-05-29T00:36:43;15.60;99.90
5560;DHT22;2803;47.916;8.074;2023-05-29T00:39:25;15.60;99.90
5560;DHT22;2803;47.916;8.074;2023-05-29T00:42:10;15.60;99.90
5560;DHT22;2803;47.916;8.074;2023-05-29T00:44:52;15.60;99.90
5560;DHT22;2803;47.916;8.074;2023-05-29T00:47:41;15.60;99.90
5560;DHT22;2803;47.916;8.074;2023-05-29T00:50:23;15.60;99.90
5560;DHT22;2803;47.916;8.074;2023-05-29T00:53:10;15.50;99.90
5560;DHT22;2803;47.916;8.074;2023-05-29T00:55:52;15.40;99.90
5560;DHT22;2803;47.916;8.074;2023-05-29T00:58:37;14.90;99.90
5560;DHT22;2803;47.916;8.074;2023-05-29T01:01:19;14.50;99.90
5560;DHT22;2803;47.916;8.074;2023-05-29T01:04:05;14.70;99.90
5560;DHT22;2803;47.916;8.074;2023-05-29T01:06:51;14.90;99.90
5560;DHT22;2803;47.916;8.074;2023-05-29T01:09:34;15.00;99.90
5560;DHT22;2803;47.916;8.074;2023-05-29T01:12:26;15.00;99.90
5560;DHT22;2803;47.916;8.074;2023-05-29T01:15:14;15.00;99.90
5560;DHT22;2803;47.916;8.074;2023-05-29T01:17:57;15.00;99.90
5560;DHT22;2803;47.916;8.074;2023-05-29T01:20:35;15.00;99.90
5560;DHT22;2803;47.916;8.074;2023-05-29T01:23:27;15.00;99.90
5560;DHT22;2803;47.916;8.074;2023-05-29T01:26:11;15.00;99.90
5560;DHT22;2803;47.916;8.074;2023-05-29T01:28:48;14.80;99.90
5560;DHT22;2803;47.916;8.074;2023-05-29T01:31:31;14.80;99.90
5560;DHT22;2803;47.916;8.074;2023-05-29T01:34:14;14.50;99.90
5560;DHT22;2803;47.916;8.074;2023-05-29T01:36:56;14.60;99.90
5560;DHT22;2803;47.916;8.074;2023-05-29T01:39:41;14.70;99.90
5560;DHT22;2803;47.916;8.074;2023-05-29T01:42:27;14.70;99.90
5560;DHT22;2803;47.916;8.074;2023-05-29T01:45:14;14.30;99.90
5560;DHT22;2803;47.916;8.074;2023-05-29T01:47:57;14.30;99.90
5560;DHT22;2803;47.916;8.074;2023-05-29T01:50:42;14.30;99.90
5560;DHT22;2803;47.916;8.074;2023-05-29T01:53:25;14.50;99.90
5560;DHT22;2803;47.916;8.074;2023-05-29T01:56:07;14.40;99.90
5560;DHT22;2803;47.916;8.074;2023-05-29T01:58:53;14.10;99.90
5560;DHT22;2803;47.916;8.074;2023-05-29T02:01:40;14.20;99.90
5560;DHT22;2803;47.916;8.074;2023-05-29T02:04:22;14.20;99.90
5560;DHT22;2803;47.916;8.074;2023-05-29T02:07:04;14.30;99.90
5560;DHT22;2803;47.916;8.074;2023-05-29T02:09:50;14.40;99.90
5560;DHT22;2803;47.916;8.074;2023-05-29T02:12:35;14.40;99.90
5560;DHT22;2803;47.916;8.074;2023-05-29T02:15:20;14.40;99.90
5560;DHT22;2803;47.916;8.074;2023-05-29T02:18:03;14.10;99.90
5560;DHT22;2803;47.916;8.074;2023-05-29T02:20:48;14.20;99.90
5560;DHT22;2803;47.916;8.074;2023-05-29T02:23:30;14.10;99.90
5560;DHT22;2803;47.916;8.074;2023-05-29T02:26:19;14.10;99.90
5560;DHT22;2803;47.916;8.074;2023-05-29T02:29:02;14.00;99.90
5560;DHT22;2803;47.916;8.074;2023-05-29T02:31:46;14.10;99.90
5560;DHT22;2803;47.916;8.074;2023-05-29T02:34:32;14.20;99.90
5560;DHT22;2803;47.916;8.074;2023-05-29T02:37:14;14.10;99.90
5560;DHT22;2803;47.916;8.074;2023-05-29T02:39:55;13.90;99.90
5560;DHT22;2803;47.916;8.074;2023-05-29T02:42:44;13.80;99.90
5560;DHT22;2803;47.916;8.074;2023-05-29T02:45:26;13.90;99.90
5560;DHT22;2803;47.916;8.074;2023-05-29T02:48:11;13.90;99.90
5560;DHT22;2803;47.916;8.074;2023-05-29T02:50:57;14.00;99.90
5560;DHT22;2803;47.916;8.074;2023-05-29T02:53:39;14.00;99.90
5560;DHT22;2803;47.916;8.074;2023-05-29T02:56:24;14.10;99.90
5560;DHT22;2803;47.916;8.074;2023-05-29T02:59:09;14.00;99.90
5560;DHT22;2803;47.916;8.074;2023-05-29T03:01:54;14.00;99.90
5560;DHT22;2803;47.916;8.074;2023-05-29T03:04:39;13.90;99.90
5560;DHT22;2803;47.916;8.074;2023-05-29T03:07:22;14.00;99.90
5560;DHT22;2803;47.916;8.074;2023-05-29T03:10:07;13.90;99.90
5560;DHT22;2803;47.916;8.074;2023-05-29T03:12:53;14.00;99.90
5560;DHT22;2803;47.916;8.074;2023-05-29T03:15:39;14.00;99.90
5560;DHT22;2803;47.916;8.074;2023-05-29T03:18:21;14.10;99.90
5560;DHT22;2803;47.916;8.074;2023-05-29T03:21:05;13.90;99.90
5560;DHT22;2803;47.916;8.074;2023-05-29T03:23:49;13.60;99.90
5560;DHT22;2803;47.916;8.074;2023-05-29T03:26:35;13.60;99.90
5560;DHT22;2803;47.916;8.074;2023-05-29T03:29:20;13.70;99.90
5560;DHT22;2803;47.916;8.074;2023-05-29T03:32:02;13.50;99.90
5560;DHT22;2803;47.916;8.074;2023-05-29T03:34:47;13.20;99.90
5560;DHT22;2803;47.916;8.074;2023-05-29T03:37:32;13.20;99.90
5560;DHT22;2803;47.916;8.074;2023-05-29T03:40:15;13.40;99.90
5560;DHT22;2803;47.916;8.074;2023-05-29T03:43:00;13.40;99.90
5560;DHT22;2803;47.916;8.074;2023-05-29T03:45:42;13.50;99.90
5560;DHT22;2803;47.916;8.074;2023-05-29T03:48:27;13.50;99.90
5560;DHT22;2803;47.916;8.074;2023-05-29T03:51:12;13.50;99.90
5560;DHT22;2803;47.916;8.074;2023-05-29T03:53:57;13.50;99.90
5560;DHT22;2803;47.916;8.074;2023-05-29T03:56:44;13.10;99.90
5560;DHT22;2803;47.916;8.074;2023-05-29T03:59:26;13.20;99.90
5560;DHT22;2803;47.916;8.074;2023-05-29T04:02:11;13.20;99.90
5560;DHT22;2803;47.916;8.074;2023-05-29T04:04:56;13.30;99.90
5560;DHT22;2803;47.916;8.074;2023-05-29T04:07:41;13.30;99.90
5560;DHT22;2803;47.916;8.074;2023-05-29T04:10:23;13.30;99.90
5560;DHT22;2803;47.916;8.074;2023-05-29T04:13:09;12.80;99.90
5560;DHT22;2803;47.916;8.074;2023-05-29T04:15:54;13.20;99.90
5560;DHT22;2803;47.916;8.074;2023-05-29T04:18:36;13.20;99.90
5560;DHT22;2803;47.916;8.074;2023-05-29T04:21:21;13.40;99.90
5560;DHT22;2803;47.916;8.074;2023-05-29T04:24:06;13.40;99.90
5560;DHT22;2803;47.916;8.074;2023-05-29T04:26:51;13.30;99.90
5560;DHT22;2803;47.916;8.074;2023-05-29T04:29:37;13.00;99.90
5560;DHT22;2803;47.916;8.074;2023-05-29T04:32:21;12.80;99.90
5560;DHT22;2803;47.916;8.074;2023-05-29T04:35:06;13.00;99.90
5560;DHT22;2803;47.916;8.074;2023-05-29T04:37:48;12.90;99.90
5560;DHT22;2803;47.916;8.074;2023-05-29T04:40:33;13.10;99.90
5560;DHT22;2803;47.916;8.074;2023-05-29T04:43:17;13.30;99.90
5560;DHT22;2803;47.916;8.074;2023-05-29T04:46:03;13.30;99.90
5560;DHT22;2803;47.916;8.074;2023-05-29T04:48:45;13.20;99.90
5560;DHT22;2803;47.916;8.074;2023-05-29T04:51:28;13.30;99.90
5560;DHT22;2803;47.916;8.074;2023-05-29T04:54:14;13.50;99.90
5560;DHT22;2803;47.916;8.074;2023-05-29T04:57:00;13.50;99.90
5560;DHT22;2803;47.916;8.074;2023-05-29T04:59:42;13.30;99.90
5560;DHT22;2803;47.916;8.074;2023-05-29T05:02:29;13.50;99.90
5560;DHT22;2803;47.916;8.074;2023-05-29T05:05:13;13.60;99.90
5560;DHT22;2803;47.916;8.074;2023-05-29T05:07:58;13.70;99.90
5560;DHT22;2803;47.916;8.074;2023-05-29T05:10:43;13.70;99.90
5560;DHT22;2803;47.916;8.074;2023-05-29T05:13:25;14.00;99.90
5560;DHT22;2803;47.916;8.074;2023-05-29T05:16:10;13.90;99.90
5560;DHT22;2803;47.916;8.074;2023-05-29T05:18:57;14.10;99.90
5560;DHT22;2803;47.916;8.074;2023-05-29T05:21:39;14.20;99.90
5560;DHT22;2803;47.916;8.074;2023-05-29T05:24:24;14.00;99.90
5560;DHT22;2803;47.916;8.074;2023-05-29T05:27:06;14.10;99.90
5560;DHT22;2803;47.916;8.074;2023-05-29T05:29:51;14.30;99.90
5560;DHT22;2803;47.916;8.074;2023-05-29T05:32:36;14.50;99.90
5560;DHT22;2803;47.916;8.074;2023-05-29T05:35:22;14.50;99.90
5560;DHT22;2803;47.916;8.074;2023-05-29T05:38:07;14.50;99.90
5560;DHT22;2803;47.916;8.074;2023-05-29T05:40:49;14.60;99.90
5560;DHT22;2803;47.916;8.074;2023-05-29T05:43:34;14.50;99.90
5560;DHT22;2803;47.916;8.074;2023-05-29T05:46:18;14.70;99.90
5560;DHT22;2803;47.916;8.074;2023-05-29T05:49:03;14.90;99.90
5560;DHT22;2803;47.916;8.074;2023-05-29T05:51:49;15.20;99.90
5560;DHT22;2803;47.916;8.074;2023-05-29T05:54:34;15.40;99.90
5560;DHT22;2803;47.916;8.074;2023-05-29T05:57:16;15.70;99.90
5560;DHT22;2803;47.916;8.074;2023-05-29T06:00:02;15.80;99.90
5560;DHT22;2803;47.916;8.074;2023-05-29T06:02:44;15.90;99.90
5560;DHT22;2803;47.916;8.074;2023-05-29T06:05:29;16.00;99.90
5560;DHT22;2803;47.916;8.074;2023-05-29T06:08:15;16.30;99.90
5560;DHT22;2803;47.916;8.074;2023-05-29T06:10:57;16.40;99.90
5560;DHT22;2803;47.916;8.074;2023-05-29T06:13:41;16.60;99.90
5560;DHT22;2803;47.916;8.074;2023-05-29T06:16:26;16.70;99.90
5560;DHT22;2803;47.916;8.074;2023-05-29T06:19:11;16.80;99.90
5560;DHT22;2803;47.916;8.074;2023-05-29T06:21:58;16.90;99.90
5560;DHT22;2803;47.916;8.074;2023-05-29T06:24:41;17.10;99.90
5560;DHT22;2803;47.916;8.074;2023-05-29T06:27:23;17.20;99.90
5560;DHT22;2803;47.916;8.074;2023-05-29T06:30:10;17.40;99.90
5560;DHT22;2803;47.916;8.074;2023-05-29T06:32:55;17.40;99.90
5560;DHT22;2803;47.916;8.074;2023-05-29T06:35:37;17.60;99.90
5560;DHT22;2803;47.916;8.074;2023-05-29T06:38:21;17.70;99.90
5560;DHT22;2803;47.916;8.074;2023-05-29T06:41:08;17.80;99.90
5560;DHT22;2803;47.916;8.074;2023-05-29T06:43:49;18.20;99.90
5560;DHT22;2803;47.916;8.074;2023-05-29T06:46:35;18.30;99.90
5560;DHT22;2803;47.916;8.074;2023-05-29T06:49:20;18.50;99.90
5560;DHT22;2803;47.916;8.074;2023-05-29T06:52:05;18.80;99.90
5560;DHT22;2803;47.916;8.074;2023-05-29T06:54:50;18.80;99.90
5560;DHT22;2803;47.916;8.074;2023-05-29T06:57:36;19.20;99.90
5560;DHT22;2803;47.916;8.074;2023-05-29T07:00:18;19.30;99.90
5560;DHT22;2803;47.916;8.074;2023-05-29T07:03:00;19.50;99.90
5560;DHT22;2803;47.916;8.074;2023-05-29T07:05:44;19.80;99.90
5560;DHT22;2803;47.916;8.074;2023-05-29T07:08:33;20.10;99.90
5560;DHT22;2803;47.916;8.074;2023-05-29T07:11:15;19.50;99.90
5560;DHT22;2803;47.916;8.074;2023-05-29T07:14:02;19.50;99.90
5560;DHT22;2803;47.916;8.074;2023-05-29T07:16:43;20.10;99.90
5560;DHT22;2803;47.916;8.074;2023-05-29T07:19:28;19.80;97.90
5560;DHT22;2803;47.916;8.074;2023-05-29T07:22:13;19.50;97.50
5560;DHT22;2803;47.916;8.074;2023-05-29T07:24:58;19.90;97.20
5560;DHT22;2803;47.916;8.074;2023-05-29T07:27:40;20.50;97.80
5560;DHT22;2803;47.916;8.074;2023-05-29T07:30:27;20.30;96.60
5560;DHT22;2803;47.916;8.074;2023-05-29T07:33:08;20.40;96.10
5560;DHT22;2803;47.916;8.074;2023-05-29T07:35:54;20.50;96.50
5560;DHT22;2803;47.916;8.074;2023-05-29T07:38:39;20.40;95.20
5560;DHT22;2803;47.916;8.074;2023-05-29T07:41:24;20.50;95.00
5560;DHT22;2803;47.916;8.074;2023-05-29T07:44:07;21.10;94.90
5560;DHT22;2803;47.916;8.074;2023-05-29T07:46:53;21.10;95.10
5560;DHT22;2803;47.916;8.074;2023-05-29T07:49:38;21.10;94.00
5560;DHT22;2803;47.916;8.074;2023-05-29T07:52:22;21.00;92.60
5560;DHT22;2803;47.916;8.074;2023-05-29T07:55:04;20.70;92.10
5560;DHT22;2803;47.916;8.074;2023-05-29T07:57:49;20.40;93.10
5560;DHT22;2803;47.916;8.074;2023-05-29T08:00:34;20.80;92.80
5560;DHT22;2803;47.916;8.074;2023-05-29T08:03:21;21.10;92.30
5560;DHT22;2803;47.916;8.074;2023-05-29T08:06:03;21.50;91.70
5560;DHT22;2803;47.916;8.074;2023-05-29T08:08:48;21.30;91.60
5560;DHT22;2803;47.916;8.074;2023-05-29T08:11:30;20.80;91.20
5560;DHT22;2803;47.916;8.074;2023-05-29T08:14:15;21.00;91.90
5560;DHT22;2803;47.916;8.074;2023-05-29T08:17:00;21.20;90.50
5560;DHT22;2803;47.916;8.074;2023-05-29T08:19:47;21.70;90.80
5560;DHT22;2803;47.916;8.074;2023-05-29T08:22:29;21.80;89.70
5560;DHT22;2803;47.916;8.074;2023-05-29T08:25:14;21.30;89.40
5560;DHT22;2803;47.916;8.074;2023-05-29T08:27:59;21.30;89.40
5560;DHT22;2803;47.916;8.074;2023-05-29T08:30:44;21.30;87.60
5560;DHT22;2803;47.916;8.074;2023-05-29T08:33:25;21.40;88.80
5560;DHT22;2803;47.916;8.074;2023-05-29T08:36:12;21.70;90.10
5560;DHT22;2803;47.916;8.074;2023-05-29T08:38:57;21.50;87.10
5560;DHT22;2803;47.916;8.074;2023-05-29T08:41:48;21.90;88.70
5560;DHT22;2803;47.916;8.074;2023-05-29T08:44:26;22.90;88.30
5560;DHT22;2803;47.916;8.074;2023-05-29T08:47:11;22.20;84.90
5560;DHT22;2803;47.916;8.074;2023-05-29T08:49:54;22.20;85.40
5560;DHT22;2803;47.916;8.074;2023-05-29T08:52:41;22.20;87.60
5560;DHT22;2803;47.916;8.074;2023-05-29T08:55:25;22.70;84.40
5560;DHT22;2803;47.916;8.074;2023-05-29T08:58:08;22.80;82.50
5560;DHT22;2803;47.916;8.074;2023-05-29T09:00:50;22.70;82.50
5560;DHT22;2803;47.916;8.074;2023-05-29T09:03:35;22.60;82.30
5560;DHT22;2803;47.916;8.074;2023-05-29T09:06:22;22.60;81.20
5560;DHT22;2803;47.916;8.074;2023-05-29T09:09:04;22.60;81.70
5560;DHT22;2803;47.916;8.074;2023-05-29T09:11:49;22.40;82.50
5560;DHT22;2803;47.916;8.074;2023-05-29T09:14:33;22.60;80.90
5560;DHT22;2803;47.916;8.074;2023-05-29T09:17:19;23.10;78.80
5560;DHT22;2803;47.916;8.074;2023-05-29T09:20:01;22.80;78.00
5560;DHT22;2803;47.916;8.074;2023-05-29T09:22:53;23.10;78.00
5560;DHT22;2803;47.916;8.074;2023-05-29T09:25:31;23.20;77.60
5560;DHT22;2803;47.916;8.074;2023-05-29T09:28:13;23.50;79.40
5560;DHT22;2803;47.916;8.074;2023-05-29T09:30:42;23.40;80.90
5560;DHT22;2803;47.916;8.074;2023-05-29T09:33:10;23.30;80.40
5560;DHT22;2803;47.916;8.074;2023-05-29T09:35:38;23.80;81.20
5560;DHT22;2803;47.916;8.074;2023-05-29T09:38:05;23.50;80.90
5560;DHT22;2803;47.916;8.074;2023-05-29T09:40:36;23.40;78.50
5560;DHT22;2803;47.916;8.074;2023-05-29T09:43:04;22.90;78.10
5560;DHT22;2803;47.916;8.074;2023-05-29T09:45:33;22.90;79.40
5560;DHT22;2803;47.916;8.074;2023-05-29T09:48:01;22.80;81.00
5560;DHT22;2803;47.916;8.074;2023-05-29T09:50:28;23.30;79.40
5560;DHT22;2803;47.916;8.074;2023-05-29T09:52:56;24.40;80.90
5560;DHT22;2803;47.916;8.074;2023-05-29T09:55:25;24.60;79.70
5560;DHT22;2803;47.916;8.074;2023-05-29T09:57:54;24.60;79.40
5560;DHT22;2803;47.916;8.074;2023-05-29T10:00:21;25.00;80.50
5560;DHT22;2803;47.916;8.074;2023-05-29T10:02:49;25.00;76.30
5560;DHT22;2803;47.916;8.074;2023-05-29T10:05:15;24.50;76.30
5560;DHT22;2803;47.916;8.074;2023-05-29T10:07:44;24.60;76.10
5560;DHT22;2803;47.916;8.074;2023-05-29T10:10:13;25.10;77.20
5560;DHT22;2803;47.916;8.074;2023-05-29T10:12:44;24.90;79.40
5560;DHT22;2803;47.916;8.074;2023-05-29T10:15:14;25.20;76.50
5560;DHT22;2803;47.916;8.074;2023-05-29T10:17:48;25.00;76.80
5560;DHT22;2803;47.916;8.074;2023-05-29T10:20:17;25.70;77.10
5560;DHT22;2803;47.916;8.074;2023-05-29T10:22:47;26.70;75.60
5560;DHT22;2803;47.916;8.074;2023-05-29T10:25:14;26.30;72.30
5560;DHT22;2803;47.916;8.074;2023-05-29T10:27:44;25.20;75.20
5560;DHT22;2803;47.916;8.074;2023-05-29T10:30:20;25.40;75.00
5560;DHT22;2803;47.916;8.074;2023-05-29T10:33:01;25.10;75.30
5560;DHT22;2803;47.916;8.074;2023-05-29T10:35:35;25.00;75.20
5560;DHT22;2803;47.916;8.074;2023-05-29T10:38:11;24.60;73.70
5560;DHT22;2803;47.916;8.074;2023-05-29T10:40:38;25.70;74.40
5560;DHT22;2803;47.916;8.074;2023-05-29T10:43:04;25.40;71.90
5560;DHT22;2803;47.916;8.074;2023-05-29T10:45:49;25.70;72.80
5560;DHT22;2803;47.916;8.074;2023-05-29T10:48:36;25.50;70.10
5560;DHT22;2803;47.916;8.074;2023-05-29T10:51:05;26.40;72.90
5560;DHT22;2803;47.916;8.074;2023-05-29T10:53:32;26.90;71.20
5560;DHT22;2803;47.916;8.074;2023-05-29T10:56:00;27.30;70.90
5560;DHT22;2803;47.916;8.074;2023-05-29T10:58:30;26.40;67.60
5560;DHT22;2803;47.916;8.074;2023-05-29T11:00:58;25.50;68.30
5560;DHT22;2803;47.916;8.074;2023-05-29T11:03:29;25.80;69.70
5560;DHT22;2803;47.916;8.074;2023-05-29T11:05:56;25.30;69.90
5560;DHT22;2803;47.916;8.074;2023-05-29T11:08:28;25.90;70.50
5560;DHT22;2803;47.916;8.074;2023-05-29T11:10:57;26.60;71.10
5560;DHT22;2803;47.916;8.074;2023-05-29T11:13:25;26.60;70.30
5560;DHT22;2803;47.916;8.074;2023-05-29T11:16:12;27.00;68.70
5560;DHT22;2803;47.916;8.074;2023-05-29T11:18:42;27.00;68.20
5560;DHT22;2803;47.916;8.074;2023-05-29T11:21:22;26.90;66.70
5560;DHT22;2803;47.916;8.074;2023-05-29T11:23:51;27.10;66.50
5560;DHT22;2803;47.916;8.074;2023-05-29T11:26:23;27.80;66.00
5560;DHT22;2803;47.916;8.074;2023-05-29T11:28:50;28.30;64.90
5560;DHT22;2803;47.916;8.074;2023-05-29T11:31:20;28.40;60.90
5560;DHT22;2803;47.916;8.074;2023-05-29T11:33:50;28.50;63.80
5560;DHT22;2803;47.916;8.074;2023-05-29T11:36:21;28.60;64.10
5560;DHT22;2803;47.916;8.074;2023-05-29T11:38:48;28.90;64.20
5560;DHT22;2803;47.916;8.074;2023-05-29T11:41:17;28.10;59.30
5560;DHT22;2803;47.916;8.074;2023-05-29T11:43:44;27.30;60.00
5560;DHT22;2803;47.916;8.074;2023-05-29T11:46:20;27.90;60.90
5560;DHT22;2803;47.916;8.074;2023-05-29T11:48:46;28.10;57.40
5560;DHT22;2803;47.916;8.074;2023-05-29T11:51:13;27.90;57.40
5560;DHT22;2803;47.916;8.074;2023-05-29T11:53:40;27.70;58.50
5560;DHT22;2803;47.916;8.074;2023-05-29T11:56:08;27.10;56.90
5560;DHT22;2803;47.916;8.074;2023-05-29T11:58:37;27.00;57.50
5560;DHT22;2803;47.916;8.074;2023-05-29T12:01:04;27.40;57.00
5560;DHT22;2803;47.916;8.074;2023-05-29T12:03:39;27.50;56.60
5560;DHT22;2803;47.916;8.074;2023-05-29T12:06:09;28.00;58.40
5560;DHT22;2803;47.916;8.074;2023-05-29T12:08:36;28.40;58.10
5560;DHT22;2803;47.916;8.074;2023-05-29T12:11:04;28.20;55.70
5560;DHT22;2803;47.916;8.074;2023-05-29T12:13:31;27.70;56.60
5560;DHT22;2803;47.916;8.074;2023-05-29T12:16:01;27.70;55.80
5560;DHT22;2803;47.916;8.074;2023-05-29T12:18:29;27.00;56.20
5560;DHT22;2803;47.916;8.074;2023-05-29T12:20:59;27.70;58.00
5560;DHT22;2803;47.916;8.074;2023-05-29T12:23:26;28.90;57.60
5560;DHT22;2803;47.916;8.074;2023-05-29T12:25:54;29.10;57.20
5560;DHT22;2803;47.916;8.074;2023-05-29T12:28:21;29.50;59.90
5560;DHT22;2803;47.916;8.074;2023-05-29T12:30:49;30.10;56.60
5560;DHT22;2803;47.916;8.074;2023-05-29T12:33:31;28.40;60.80
5560;DHT22;2803;47.916;8.074;2023-05-29T12:36:04;28.00;61.30
5560;DHT22;2803;47.916;8.074;2023-05-29T12:38:31;27.30;63.80
5560;DHT22;2803;47.916;8.074;2023-05-29T12:40:58;28.50;63.20
5560;DHT22;2803;47.916;8.074;2023-05-29T12:43:25;29.10;61.60
5560;DHT22;2803;47.916;8.074;2023-05-29T12:45:54;28.90;62.80
5560;DHT22;2803;47.916;8.074;2023-05-29T12:48:26;29.20;61.20
5560;DHT22;2803;47.916;8.074;2023-05-29T12:50:53;28.80;61.50
5560;DHT22;2803;47.916;8.074;2023-05-29T12:53:20;28.50;59.40
5560;DHT22;2803;47.916;8.074;2023-05-29T12:55:47;28.90;59.20
5560;DHT22;2803;47.916;8.074;2023-05-29T12:58:15;29.10;59.40
5560;DHT22;2803;47.916;8.074;2023-05-29T13:00:43;29.60;60.20
5560;DHT22;2803;47.916;8.074;2023-05-29T13:03:10;30.10;58.20
5560;DHT22;2803;47.916;8.074;2023-05-29T13:05:37;30.80;56.50
5560;DHT22;2803;47.916;8.074;2023-05-29T13:08:05;30.20;57.10
5560;DHT22;2803;47.916;8.074;2023-05-29T13:10:34;29.30;57.10
5560;DHT22;2803;47.916;8.074;2023-05-29T13:13:01;28.90;57.60
5560;DHT22;2803;47.916;8.074;2023-05-29T13:15:27;28.30;57.10
5560;DHT22;2803;47.916;8.074;2023-05-29T13:17:54;28.30;57.40
5560;DHT22;2803;47.916;8.074;2023-05-29T13:20:21;28.40;58.00
5560;DHT22;2803;47.916;8.074;2023-05-29T13:22:48;28.20;57.20
5560;DHT22;2803;47.916;8.074;2023-05-29T13:25:15;28.20;58.00
5560;DHT22;2803;47.916;8.074;2023-05-29T13:27:45;28.60;60.50
5560;DHT22;2803;47.916;8.074;2023-05-29T13:30:13;28.90;56.80
5560;DHT22;2803;47.916;8.074;2023-05-29T13:32:40;29.60;53.10
5560;DHT22;2803;47.916;8.074;2023-05-29T13:35:07;29.40;50.40
5560;DHT22;2803;47.916;8.074;2023-05-29T13:37:35;29.10;50.70
5560;DHT22;2803;47.916;8.074;2023-05-29T13:40:02;29.10;49.50
5560;DHT22;2803;47.916;8.074;2023-05-29T13:42:29;29.30;48.50
5560;DHT22;2803;47.916;8.074;2023-05-29T13:44:57;30.00;50.50
5560;DHT22;2803;47.916;8.074;2023-05-29T13:47:24;30.40;47.40
5560;DHT22;2803;47.916;8.074;2023-05-29T13:49:53;29.30;48.90
5560;DHT22;2803;47.916;8.074;2023-05-29T13:52:20;28.30;51.10
5560;DHT22;2803;47.916;8.074;2023-05-29T13:54:47;28.10;51.70
5560;DHT22;2803;47.916;8.074;2023-05-29T13:57:13;28.40;52.40
5560;DHT22;2803;47.916;8.074;2023-05-29T13:59:42;29.10;51.50
5560;DHT22;2803;47.916;8.074;2023-05-29T14:02:11;29.20;51.10
5560;DHT22;2803;47.916;8.074;2023-05-29T14:04:38;29.60;51.00
5560;DHT22;2803;47.916;8.074;2023-05-29T14:07:07;30.10;51.10
5560;DHT22;2803;47.916;8.074;2023-05-29T14:09:34;29.00;50.20
5560;DHT22;2803;47.916;8.074;2023-05-29T14:12:00;28.30;51.90
5560;DHT22;2803;47.916;8.074;2023-05-29T14:14:29;29.00;54.10
5560;DHT22;2803;47.916;8.074;2023-05-29T14:16:56;29.80;53.10
5560;DHT22;2803;47.916;8.074;2023-05-29T14:19:24;30.30;51.10
5560;DHT22;2803;47.916;8.074;2023-05-29T14:21:50;29.50;54.00
5560;DHT22;2803;47.916;8.074;2023-05-29T14:24:17;28.90;56.70
5560;DHT22;2803;47.916;8.074;2023-05-29T14:26:44;28.90;56.00
5560;DHT22;2803;47.916;8.074;2023-05-29T14:29:13;28.00;56.20
5560;DHT22;2803;47.916;8.074;2023-05-29T14:31:40;27.60;57.80
5560;DHT22;2803;47.916;8.074;2023-05-29T14:34:06;27.20;59.70
5560;DHT22;2803;47.916;8.074;2023-05-29T14:36:34;27.00;58.40
5560;DHT22;2803;47.916;8.074;2023-05-29T14:39:02;26.50;58.50
5560;DHT22;2803;47.916;8.074;2023-05-29T14:41:28;26.50;58.50
5560;DHT22;2803;47.916;8.074;2023-05-29T14:43:55;26.10;60.20
5560;DHT22;2803;47.916;8.074;2023-05-29T14:46:23;26.30;60.00
5560;DHT22;2803;47.916;8.074;2023-05-29T14:48:50;26.60;60.20
5560;DHT22;2803;47.916;8.074;2023-05-29T14:51:16;26.70;60.40
5560;DHT22;2803;47.916;8.074;2023-05-29T14:53:45;26.80;59.50
5560;DHT22;2803;47.916;8.074;2023-05-29T14:56:12;26.70;59.90
5560;DHT22;2803;47.916;8.074;2023-05-29T14:58:38;26.10;60.10
5560;DHT22;2803;47.916;8.074;2023-05-29T15:01:06;26.20;60.10
5560;DHT22;2803;47.916;8.074;2023-05-29T15:03:33;25.80;61.30
5560;DHT22;2803;47.916;8.074;2023-05-29T15:06:00;25.60;62.40
5560;DHT22;2803;47.916;8.074;2023-05-29T15:08:27;25.40;63.40
5560;DHT22;2803;47.916;8.074;2023-05-29T15:10:58;25.80;63.20
5560;DHT22;2803;47.916;8.074;2023-05-29T15:13:24;26.10;63.10
5560;DHT22;2803;47.916;8.074;2023-05-29T15:15:51;26.00;62.70
5560;DHT22;2803;47.916;8.074;2023-05-29T15:18:18;25.80;62.90
5560;DHT22;2803;47.916;8.074;2023-05-29T15:20:44;25.70;64.40
5560;DHT22;2803;47.916;8.074;2023-05-29T15:23:11;25.50;65.30
5560;DHT22;2803;47.916;8.074;2023-05-29T15:25:37;25.50;64.90
5560;DHT22;2803;47.916;8.074;2023-05-29T15:28:05;25.60;63.50
5560;DHT22;2803;47.916;8.074;2023-05-29T15:30:32;25.50;63.50
5560;DHT22;2803;47.916;8.074;2023-05-29T15:32:58;25.50;63.40
5560;DHT22;2803;47.916;8.074;2023-05-29T15:35:25;25.80;62.50
5560;DHT22;2803;47.916;8.074;2023-05-29T15:37:51;25.60;63.30
5560;DHT22;2803;47.916;8.074;2023-05-29T15:40:18;25.60;64.20
5560;DHT22;2803;47.916;8.074;2023-05-29T15:42:44;25.80;65.30
5560;DHT22;2803;47.916;8.074;2023-05-29T15:45:13;26.00;63.70
5560;DHT22;2803;47.916;8.074;2023-05-29T15:47:39;26.00;64.20
5560;DHT22;2803;47.916;8.074;2023-05-29T15:50:07;25.50;63.40
5560;DHT22;2803;47.916;8.074;2023-05-29T15:52:34;25.10;64.70
5560;DHT22;2803;47.916;8.074;2023-05-29T15:55:00;24.90;64.80
5560;DHT22;2803;47.916;8.074;2023-05-29T15:57:27;25.30;65.00
5560;DHT22;2803;47.916;8.074;2023-05-29T15:59:53;25.70;65.10
5560;DHT22;2803;47.916;8.074;2023-05-29T16:02:21;26.10;64.20
5560;DHT22;2803;47.916;8.074;2023-05-29T16:04:48;26.00;64.70
5560;DHT22;2803;47.916;8.074;2023-05-29T16:07:15;25.30;64.90
5560;DHT22;2803;47.916;8.074;2023-05-29T16:09:41;25.20;66.10
5560;DHT22;2803;47.916;8.074;2023-05-29T16:12:09;25.40;61.20
5560;DHT22;2803;47.916;8.074;2023-05-29T16:14:39;25.20;63.10
5560;DHT22;2803;47.916;8.074;2023-05-29T16:17:06;25.20;63.20
5560;DHT22;2803;47.916;8.074;2023-05-29T16:19:34;24.70;63.60
5560;DHT22;2803;47.916;8.074;2023-05-29T16:22:01;24.60;62.30
5560;DHT22;2803;47.916;8.074;2023-05-29T16:24:27;24.60;64.00
5560;DHT22;2803;47.916;8.074;2023-05-29T16:26:54;24.60;64.50
5560;DHT22;2803;47.916;8.074;2023-05-29T16:29:20;25.10;63.60
5560;DHT22;2803;47.916;8.074;2023-05-29T16:31:47;24.70;61.90
5560;DHT22;2803;47.916;8.074;2023-05-29T16:34:14;24.80;62.60
5560;DHT22;2803;47.916;8.074;2023-05-29T16:36:42;25.00;62.90
5560;DHT22;2803;47.916;8.074;2023-05-29T16:39:09;25.20;62.60
5560;DHT22;2803;47.916;8.074;2023-05-29T16:41:36;25.10;62.10
5560;DHT22;2803;47.916;8.074;2023-05-29T16:44:03;25.30;60.60
5560;DHT22;2803;47.916;8.074;2023-05-29T16:46:29;24.90;59.20
5560;DHT22;2803;47.916;8.074;2023-05-29T16:48:57;24.80;60.20
5560;DHT22;2803;47.916;8.074;2023-05-29T16:51:23;25.00;61.20
5560;DHT22;2803;47.916;8.074;2023-05-29T16:53:51;25.10;61.30
5560;DHT22;2803;47.916;8.074;2023-05-29T16:56:17;25.10;60.90
5560;DHT22;2803;47.916;8.074;2023-05-29T16:58:44;25.40;61.20
5560;DHT22;2803;47.916;8.074;2023-05-29T17:01:11;25.60;60.10
5560;DHT22;2803;47.916;8.074;2023-05-29T17:03:37;25.80;60.50